Time;durP1;ratioP1;P1;durP2;ratioP2;P2;SDS_P1;SDS_P2;PMS_P1;PMS_P2;Temp;Humidity;BMP_temperature;BMP_pressure;BME280_temperature;BME280_humidity;BME280_pressure;Samples;Min_cycle;Max_cycle;Signal;HPM_P1;HPM_P2
2022/09/04 00:03:06;;;;;;;14.85;10.98;;;;;;;-140.66;100.00;55571.53;5032573;28;20033;-74
2022/09/04 00:05:59;;;;;;;17.63;12.10;;;;;;;-140.66;100.00;55571.53;5033390;28;20029;-73
2022/09/04 00:09:14;;;;;;;13.93;12.27;;;;;;;-140.66;100.00;55571.53;5019410;28;20029;-74
2022/09/04 00:12:04;;;;;;;14.43;12.82;;;;;;;-140.66;100.00;55571.53;5019203;28;20025;-73
2022/09/04 00:15:01;;;;;;;17.10;13.32;;;;;;;-140.66;100.00;55571.53;5032544;28;20021;-74
2022/09/04 00:18:04;;;;;;;14.98;11.77;;;;;;;-140.66;100.00;55571.53;5032960;28;20425;-73
2022/09/04 00:21:04;;;;;;;17.85;13.18;;;;;;;-140.66;100.00;55571.53;5033045;28;20034;-73
2022/09/04 00:24:04;;;;;;;14.50;12.20;;;;;;;-140.66;100.00;55571.53;5032163;28;20044;-74
2022/09/04 00:27:02;;;;;;;17.08;13.15;;;;;;;-140.66;100.00;55571.53;5019776;28;20029;-73
2022/09/04 00:29:51;;;;;;;16.80;13.18;;;;;;;-140.66;100.00;55571.53;5018887;28;20025;-73
2022/09/04 00:32:51;;;;;;;15.80;13.45;;;;;;;-140.66;100.00;55571.53;5032339;28;20029;-74
2022/09/04 00:35:43;;;;;;;18.02;13.77;;;;;;;-140.66;100.00;55571.53;5021627;28;20331;-74
2022/09/04 00:38:54;;;;;;;18.55;13.95;;;;;;;-140.66;100.00;55571.53;5021834;28;20446;-73
2022/09/04 00:42:20;;;;;;;19.73;12.98;;;;;;;-140.66;100.00;55571.53;5037300;28;20033;-73
2022/09/04 00:45:30;;;;;;;17.63;13.52;;;;;;;-140.66;100.00;55571.53;4957538;29;20102;-74
2022/09/04 00:48:27;;;;;;;20.10;14.73;;;;;;;-140.66;100.00;55571.53;4957318;29;20345;-73
2022/09/04 00:51:54;;;;;;;15.43;12.95;;;;;;;-140.66;100.00;55571.53;5023495;28;20045;-73
2022/09/04 00:54:48;;;;;;;14.68;13.10;;;;;;;-140.66;100.00;55571.53;5010382;28;20033;-73
2022/09/04 00:57:43;;;;;;;19.92;14.90;;;;;;;-140.66;100.00;55571.53;5036457;28;20042;-73
2022/09/04 01:00:29;;;;;;;16.58;13.60;;;;;;;-140.66;100.00;55571.53;5035297;28;20033;-72
2022/09/04 01:03:45;;;;;;;18.25;13.88;;;;;;;-140.66;100.00;55571.53;5036483;28;20029;-73
2022/09/04 01:06:55;;;;;;;16.67;13.10;;;;;;;-140.66;100.00;55571.53;5035683;28;20036;-74
2022/09/04 01:09:50;;;;;;;15.60;13.15;;;;;;;-140.66;100.00;55571.53;5036405;28;20045;-73
2022/09/04 01:13:08;;;;;;;19.85;13.07;;;;;;;-140.66;100.00;55571.53;5035104;28;20434;-73
2022/09/04 01:16:00;;;;;;;19.45;13.98;;;;;;;-140.66;100.00;55571.53;5003905;28;20046;-74
2022/09/04 01:19:01;;;;;;;17.42;13.38;;;;;;;-140.66;100.00;55571.53;5022010;28;20458;-74
2022/09/04 01:22:14;;;;;;;16.73;13.50;;;;;;;-140.66;100.00;55571.53;5036213;28;20305;-73
2022/09/04 01:25:17;;;;;;;17.77;13.40;;;;;;;-140.66;100.00;55571.53;5021231;28;20394;-74
2022/09/04 01:28:24;;;;;;;18.27;13.77;;;;;;;-140.66;100.00;55571.53;5022065;28;20033;-73
2022/09/04 01:31:25;;;;;;;16.05;13.13;;;;;;;-140.66;100.00;55571.53;5035879;28;20030;-74
2022/09/04 01:34:37;;;;;;;18.13;13.27;;;;;;;-140.66;100.00;55571.53;5034608;28;20033;-73
2022/09/04 01:37:43;;;;;;;17.65;13.23;;;;;;;-140.66;100.00;55571.53;5035441;28;20036;-73
2022/09/04 01:40:47;;;;;;;22.40;13.98;;;;;;;-140.66;100.00;55571.53;5034765;28;20060;-73
2022/09/04 01:43:33;;;;;;;17.60;13.95;;;;;;;-140.66;100.00;55571.53;5035472;28;20365;-73
2022/09/04 01:46:43;;;;;;;16.67;13.45;;;;;;;-140.66;100.00;55571.53;5034271;28;20032;-73
2022/09/04 01:49:43;;;;;;;16.67;13.85;;;;;;;-140.66;100.00;55571.53;5034632;28;20072;-72
2022/09/04 01:52:40;;;;;;;18.60;14.27;;;;;;;-140.66;100.00;55571.53;5019443;28;20028;-73
2022/09/04 01:55:46;;;;;;;16.98;14.05;;;;;;;-140.66;100.00;55571.53;5020527;28;20477;-73
2022/09/04 01:58:53;;;;;;;17.10;13.35;;;;;;;-140.66;100.00;55571.53;5034349;28;20043;-73
2022/09/04 02:01:48;;;;;;;18.48;13.80;;;;;;;-140.66;100.00;55571.53;5035028;28;20021;-74
2022/09/04 02:04:56;;;;;;;16.25;12.80;;;;;;;-140.66;100.00;55571.53;5035052;28;20036;-74
2022/09/04 02:08:16;;;;;;;18.67;13.35;;;;;;;-140.66;100.00;55571.53;5033861;28;20021;-73
2022/09/04 02:11:11;;;;;;;21.40;14.07;;;;;;;-140.66;100.00;55571.53;5036197;28;20029;-73
2022/09/04 02:14:07;;;;;;;16.65;13.25;;;;;;;-140.66;100.00;55571.53;5034120;28;20370;-73
2022/09/04 02:17:09;;;;;;;17.95;13.32;;;;;;;-140.66;100.00;55571.53;5033853;28;20036;-73
2022/09/04 02:20:19;;;;;;;16.67;14.00;;;;;;;-140.66;100.00;55571.53;5033930;28;20041;-73
2022/09/04 02:23:16;;;;;;;22.88;13.98;;;;;;;-140.66;100.00;55571.53;5033688;28;20117;-73
2022/09/04 02:26:22;;;;;;;19.63;13.43;;;;;;;-140.66;100.00;55571.53;5033561;28;20036;-73
2022/09/04 02:29:44;;;;;;;15.57;12.95;;;;;;;-140.66;100.00;55571.53;5019768;28;20108;-74
2022/09/04 02:32:51;;;;;;;21.27;14.13;;;;;;;-140.66;100.00;55571.53;5034207;28;20025;-73
2022/09/04 02:35:52;;;;;;;20.45;13.68;;;;;;;-140.66;100.00;55571.53;5019406;28;20022;-73
2022/09/04 02:39:06;;;;;;;19.63;13.75;;;;;;;-140.66;100.00;55571.53;5034234;28;20369;-73
2022/09/04 02:42:09;;;;;;;18.35;13.70;;;;;;;-140.66;100.00;55571.53;5028644;28;20037;-73
2022/09/04 02:45:15;;;;;;;16.45;12.75;;;;;;;-140.66;100.00;55571.53;5034301;28;20036;-73
2022/09/04 02:48:44;;;;;;;17.73;12.48;;;;;;;-140.66;100.00;55571.53;5033217;28;20025;-73
2022/09/04 02:52:09;;;;;;;17.50;13.07;;;;;;;-140.66;100.00;55571.53;5033535;28;20021;-73
2022/09/04 02:55:30;;;;;;;17.40;13.05;;;;;;;-140.66;100.00;55571.53;5034250;28;20048;-73
2022/09/04 02:58:48;;;;;;;15.65;12.93;;;;;;;-140.66;100.00;55571.53;5033738;28;20494;-73
2022/09/04 03:01:59;;;;;;;14.48;11.73;;;;;;;-140.66;100.00;55571.53;5033581;28;20037;-73
2022/09/04 03:04:55;;;;;;;18.35;14.05;;;;;;;-140.66;100.00;55571.53;5034549;28;20355;-73
2022/09/04 03:08:07;;;;;;;16.15;13.13;;;;;;;-140.66;100.00;55571.53;5033956;28;20033;-72
2022/09/04 03:11:16;;;;;;;18.98;13.38;;;;;;;-140.66;100.00;55571.53;5033546;28;20524;-74
2022/09/04 03:14:11;;;;;;;17.83;13.80;;;;;;;-140.66;100.00;55571.53;5033879;28;20120;-74
2022/09/04 03:17:20;;;;;;;17.67;13.48;;;;;;;-140.66;100.00;55571.53;5034127;28;20109;-73
2022/09/04 03:20:18;;;;;;;18.77;13.02;;;;;;;-140.66;100.00;55571.53;5019812;28;20036;-72
2022/09/04 03:23:22;;;;;;;20.33;13.18;;;;;;;-140.66;100.00;55571.53;5034216;28;20029;-74
2022/09/04 03:26:17;;;;;;;18.45;13.65;;;;;;;-140.66;100.00;55571.53;5018910;28;20084;-73
2022/09/04 03:29:15;;;;;;;16.45;13.38;;;;;;;-140.66;100.00;55571.53;5033338;28;20025;-73
2022/09/04 03:32:06;;;;;;;16.35;11.95;;;;;;;-140.66;100.00;55571.53;5032835;28;20033;-73
2022/09/04 03:35:34;;;;;;;16.90;13.02;;;;;;;-140.66;100.00;55571.53;5032488;28;20025;-73
2022/09/04 03:38:35;;;;;;;16.17;13.38;;;;;;;-140.66;100.00;55571.53;5033085;28;20371;-72
2022/09/04 03:41:44;;;;;;;19.25;12.80;;;;;;;-140.66;100.00;55571.53;5018342;28;20085;-72
2022/09/04 03:44:58;;;;;;;16.00;12.73;;;;;;;-140.66;100.00;55571.53;5033175;28;20033;-73
2022/09/04 03:48:02;;;;;;;16.63;13.65;;;;;;;-140.66;100.00;55571.53;5034559;28;20025;-73
2022/09/04 03:51:24;;;;;;;17.58;13.07;;;;;;;-140.66;100.00;55571.53;5018573;28;20388;-72
2022/09/04 03:54:25;;;;;;;21.60;14.10;;;;;;;-140.66;100.00;55571.53;5033532;28;20044;-72
2022/09/04 03:57:28;;;;;;;15.85;12.80;;;;;;;-140.66;100.00;55571.53;5033481;28;20058;-73
2022/09/04 04:00:18;;;;;;;16.08;13.07;;;;;;;-140.66;100.00;55571.53;5033442;28;20021;-72
2022/09/04 04:03:46;;;;;;;16.08;12.23;;;;;;;-140.66;100.00;55571.53;5018896;28;20109;-72
2022/09/04 04:06:38;;;;;;;21.23;14.52;;;;;;;-140.66;100.00;55571.53;5033155;28;20394;-73
2022/09/04 04:09:50;;;;;;;22.98;14.55;;;;;;;-140.66;100.00;55571.53;5022448;28;20021;-72
2022/09/04 04:12:48;;;;;;;23.70;14.68;;;;;;;-140.66;100.00;55571.53;5023013;28;20040;-73
2022/09/04 04:15:45;;;;;;;17.50;13.80;;;;;;;-140.66;100.00;55571.53;5023643;28;20040;-73
2022/09/04 04:19:00;;;;;;;19.00;13.70;;;;;;;-140.66;100.00;55571.53;5037246;28;20370;-73
2022/09/04 04:21:54;;;;;;;17.05;14.45;;;;;;;-140.66;100.00;55571.53;5036351;28;20033;-72
2022/09/04 04:25:00;;;;;;;20.08;14.80;;;;;;;-140.66;100.00;55571.53;5037114;28;20029;-73
2022/09/04 04:28:11;;;;;;;24.33;15.30;;;;;;;-140.66;100.00;55571.53;5036956;28;20022;-73
2022/09/04 04:31:18;;;;;;;17.25;13.75;;;;;;;-140.66;100.00;55571.53;5035975;28;20029;-73
2022/09/04 04:34:09;;;;;;;17.88;13.65;;;;;;;-140.66;100.00;55571.53;5036741;28;20077;-73
2022/09/04 04:37:20;;;;;;;18.67;14.65;;;;;;;-140.66;100.00;55571.53;5037121;28;20022;-72
2022/09/04 04:40:14;;;;;;;24.60;15.13;;;;;;;-140.66;100.00;55571.53;5036093;28;20029;-73
2022/09/04 04:43:17;;;;;;;22.92;16.00;;;;;;;-140.66;100.00;55571.53;5021327;28;20135;-73
2022/09/04 04:46:35;;;;;;;18.88;14.05;;;;;;;-140.66;100.00;55571.53;5022100;28;20116;-73
2022/09/04 04:49:32;;;;;;;19.67;14.02;;;;;;;-140.66;100.00;55571.53;5036257;28;20091;-73
2022/09/04 04:52:57;;;;;;;16.55;13.95;;;;;;;-140.66;100.00;55571.53;5036821;28;20112;-72
2022/09/04 04:56:26;;;;;;;20.45;13.75;;;;;;;-140.66;100.00;55571.53;5001454;28;20116;-73
2022/09/04 04:59:27;;;;;;;16.80;13.48;;;;;;;-140.66;100.00;55571.53;5036424;28;20030;-72
2022/09/04 05:02:30;;;;;;;20.45;15.13;;;;;;;-140.66;100.00;55571.53;5036428;28;20029;-73
2022/09/04 05:06:05;;;;;;;22.20;15.15;;;;;;;-140.66;100.00;55571.53;5036071;28;20025;-73
2022/09/04 05:09:04;;;;;;;20.00;14.80;;;;;;;-140.66;100.00;55571.53;4938254;29;20090;-72
2022/09/04 05:12:12;;;;;;;22.42;13.73;;;;;;;-140.66;100.00;55571.53;4937623;29;20110;-73
2022/09/04 05:15:19;;;;;;;18.52;13.60;;;;;;;-140.66;100.00;55571.53;5020476;28;20057;-73
2022/09/04 05:18:21;;;;;;;19.83;13.52;;;;;;;-140.66;100.00;55571.53;5035006;28;20035;-72
2022/09/04 05:21:20;;;;;;;14.93;12.85;;;;;;;-140.66;100.00;55571.53;5035971;28;20029;-73
2022/09/04 05:24:24;;;;;;;16.23;13.02;;;;;;;-140.66;100.00;55571.53;5035688;28;20095;-73
2022/09/04 05:27:48;;;;;;;15.48;12.32;;;;;;;-140.66;100.00;55571.53;5036517;28;20469;-73
2022/09/04 05:30:46;;;;;;;17.05;13.20;;;;;;;-140.66;100.00;55571.53;5021532;28;20064;-73
2022/09/04 05:33:55;;;;;;;15.70;12.93;;;;;;;-140.66;100.00;55571.53;5034590;28;20025;-74
2022/09/04 05:36:56;;;;;;;16.20;12.52;;;;;;;-140.66;100.00;55571.53;5034711;28;20096;-73
2022/09/04 05:39:41;;;;;;;15.90;12.73;;;;;;;-140.66;100.00;55571.53;5034122;28;20057;-74
2022/09/04 05:43:06;;;;;;;18.08;12.93;;;;;;;-140.66;100.00;55571.53;5034487;28;20429;-73
2022/09/04 05:46:23;;;;;;;15.90;12.80;;;;;;;-140.66;100.00;55571.53;5035287;28;20022;-73
2022/09/04 05:49:27;;;;;;;16.45;13.05;;;;;;;-140.66;100.00;55571.53;5035158;28;20018;-73
2022/09/04 05:52:33;;;;;;;15.55;12.30;;;;;;;-140.66;100.00;55571.53;5035501;28;20025;-73
2022/09/04 05:55:20;;;;;;;14.40;11.23;;;;;;;-140.66;100.00;55571.53;5034956;28;20061;-73
2022/09/04 05:58:11;;;;;;;16.23;11.98;;;;;;;-140.66;100.00;55571.53;5035158;28;20029;-73
2022/09/04 06:01:21;;;;;;;15.38;11.57;;;;;;;-140.66;100.00;55571.53;5034474;28;20365;-73
2022/09/04 06:04:25;;;;;;;14.38;11.95;;;;;;;-140.66;100.00;55571.53;5035466;28;20030;-73
2022/09/04 06:07:24;;;;;;;12.63;11.32;;;;;;;-140.66;100.00;55571.53;5034303;28;20030;-73
2022/09/04 06:10:21;;;;;;;11.65;10.45;;;;;;;-140.66;100.00;55571.53;5035515;28;20032;-73
2022/09/04 06:13:35;;;;;;;14.63;10.52;;;;;;;-140.66;100.00;55571.53;5035401;28;20033;-73
2022/09/04 06:16:53;;;;;;;11.68;10.05;;;;;;;-140.66;100.00;55571.53;5034069;28;20044;-72
2022/09/04 06:20:04;;;;;;;12.52;9.50;;;;;;;-140.66;100.00;55571.53;5020263;28;20026;-72
2022/09/04 06:23:08;;;;;;;12.50;9.65;;;;;;;-140.66;100.00;55571.53;5034480;28;20036;-73
2022/09/04 06:26:16;;;;;;;15.02;9.48;;;;;;;-140.66;100.00;55571.53;5034343;28;20063;-72
2022/09/04 06:29:40;;;;;;;11.23;10.02;;;;;;;-140.66;100.00;55571.53;5034696;28;20014;-73
2022/09/04 06:32:32;;;;;;;12.25;9.65;;;;;;;-140.66;100.00;55571.53;4947879;28;20087;-73
2022/09/04 06:35:59;;;;;;;14.02;9.38;;;;;;;-140.66;100.00;55571.53;5033347;28;20425;-73
2022/09/04 06:39:08;;;;;;;12.52;9.50;;;;;;;-140.66;100.00;55571.53;5002151;28;20041;-73
2022/09/04 06:42:35;;;;;;;13.40;9.27;;;;;;;-140.66;100.00;55571.53;5034295;28;20037;-73
2022/09/04 06:45:40;;;;;;;12.70;9.30;;;;;;;-140.66;100.00;55571.53;4923528;29;20063;-72
2022/09/04 06:48:48;;;;;;;10.73;9.07;;;;;;;-140.66;100.00;55571.53;5033119;28;20461;-72
2022/09/04 06:51:46;;;;;;;10.85;9.75;;;;;;;-140.66;100.00;55571.53;5034541;28;20119;-73
2022/09/04 06:55:14;;;;;;;11.63;9.10;;;;;;;-140.66;100.00;55571.53;5020112;28;20427;-73
2022/09/04 06:58:11;;;;;;;16.52;9.90;;;;;;;-140.66;100.00;55571.53;4989293;28;20045;-72
2022/09/04 07:01:07;;;;;;;11.85;9.77;;;;;;;-140.66;100.00;55571.53;5021454;28;20060;-72
2022/09/04 07:04:05;;;;;;;12.75;8.57;;;;;;;-140.66;100.00;55571.53;5033395;28;20347;-72
2022/09/04 07:06:56;;;;;;;12.55;8.90;;;;;;;-140.66;100.00;55571.53;5020823;28;20040;-73
2022/09/04 07:09:59;;;;;;;9.60;8.60;;;;;;;-140.66;100.00;55571.53;5034103;28;20033;-73
2022/09/04 07:13:06;;;;;;;11.48;8.50;;;;;;;-140.66;100.00;55571.53;5019803;28;20087;-72
2022/09/04 07:16:30;;;;;;;9.82;7.85;;;;;;;-140.66;100.00;55571.53;5034740;28;20059;-74
2022/09/04 07:20:06;;;;;;;9.30;7.60;;;;;;;-140.66;100.00;55571.53;5034915;28;20443;-73
2022/09/04 07:23:01;;;;;;;9.27;7.82;;;;;;;-140.66;100.00;55571.53;5016113;28;20116;-73
2022/09/04 07:26:17;;;;;;;12.57;7.90;;;;;;;-140.66;100.00;55571.53;5035017;28;20120;-73
2022/09/04 07:29:21;;;;;;;9.55;8.20;;;;;;;-140.66;100.00;55571.53;5034788;28;20025;-73
2022/09/04 07:32:36;;;;;;;12.40;7.63;;;;;;;-140.66;100.00;55571.53;5021037;28;20033;-72
2022/09/04 07:35:41;;;;;;;8.82;6.82;;;;;;;-140.66;100.00;55571.53;5033766;28;20026;-73
2022/09/04 07:38:49;;;;;;;8.55;6.28;;;;;;;-140.66;100.00;55571.53;5020402;28;20041;-72
2022/09/04 07:42:03;;;;;;;7.32;6.07;;;;;;;-140.66;100.00;55571.53;5034548;28;20034;-72
2022/09/04 07:44:58;;;;;;;7.30;5.57;;;;;;;-140.66;100.00;55571.53;5027818;28;20025;-72
2022/09/04 07:47:59;;;;;;;8.35;5.65;;;;;;;-140.66;100.00;55571.53;5041658;28;20107;-71
2022/09/04 07:50:47;;;;;;;5.90;5.07;;;;;;;-140.66;100.00;55571.53;5041785;28;20032;-71
2022/09/04 07:54:04;;;;;;;6.80;5.10;;;;;;;-140.66;100.00;55571.53;5041297;28;20339;-72
2022/09/04 07:57:14;;;;;;;5.25;4.75;;;;;;;-140.66;100.00;55571.53;5039151;28;20164;-71
2022/09/04 08:00:12;;;;;;;6.82;5.10;;;;;;;-140.66;100.00;55571.53;5040227;28;20425;-72
2022/09/04 08:03:30;;;;;;;6.97;4.65;;;;;;;-140.66;100.00;55571.53;5042502;28;20037;-72
2022/09/04 08:06:26;;;;;;;6.00;4.20;;;;;;;-140.66;100.00;55571.53;5036300;28;20029;-72
2022/09/04 08:09:32;;;;;;;6.45;4.40;;;;;;;-140.66;100.00;55571.53;5037819;28;20460;-72
2022/09/04 08:12:31;;;;;;;6.72;4.55;;;;;;;-140.66;100.00;55571.53;5038079;28;20045;-73
2022/09/04 08:15:41;;;;;;;8.27;4.03;;;;;;;-140.66;100.00;55571.53;5037758;28;20026;-72
2022/09/04 08:18:38;;;;;;;8.98;3.83;;;;;;;-140.66;100.00;55571.53;5038265;28;20040;-73
2022/09/04 08:21:30;;;;;;;6.18;4.18;;;;;;;-140.66;100.00;55571.53;5037713;28;20052;-73
2022/09/04 08:24:41;;;;;;;6.70;4.40;;;;;;;-140.66;100.00;55571.53;5038001;28;20067;-72
2022/09/04 08:27:33;;;;;;;4.90;4.20;;;;;;;-140.66;100.00;55571.53;5036590;28;20033;-73
2022/09/04 08:30:20;;;;;;;9.38;4.32;;;;;;;-140.66;100.00;55571.53;5023064;28;20018;-72
2022/09/04 08:33:30;;;;;;;6.70;5.65;;;;;;;-140.66;100.00;55571.53;5037514;28;20056;-72
2022/09/04 08:37:02;;;;;;;5.63;3.83;;;;;;;-140.66;100.00;55571.53;5036228;28;20378;-73
2022/09/04 08:40:15;;;;;;;7.55;4.60;;;;;;;-140.66;100.00;55571.53;5012176;28;20523;-72
2022/09/04 08:43:20;;;;;;;5.88;4.30;;;;;;;-140.66;100.00;55571.53;5024673;28;20029;-73
2022/09/04 08:46:28;;;;;;;6.68;3.67;;;;;;;-140.66;100.00;55571.53;5036590;28;20022;-73
2022/09/04 08:49:52;;;;;;;5.07;3.92;;;;;;;-140.66;100.00;55571.53;5036515;28;20029;-72
2022/09/04 08:52:49;;;;;;;5.22;3.70;;;;;;;-140.66;100.00;55571.53;5036650;28;20040;-73
2022/09/04 08:55:49;;;;;;;7.55;4.03;;;;;;;-140.66;100.00;55571.53;5035019;28;20077;-74
2022/09/04 08:59:11;;;;;;;7.13;4.40;;;;;;;-140.66;100.00;55571.53;5036208;28;20048;-75
2022/09/04 09:02:07;;;;;;;7.03;4.35;;;;;;;-140.66;100.00;55571.53;5035801;28;20025;-72
2022/09/04 09:05:14;;;;;;;5.50;4.25;;;;;;;-140.66;100.00;55571.53;5036839;28;20049;-74
2022/09/04 09:08:30;;;;;;;4.60;3.92;;;;;;;-140.66;100.00;55571.53;5022991;28;20080;-72
2022/09/04 09:11:25;;;;;;;6.40;3.92;;;;;;;-140.66;100.00;55571.53;5022214;28;20155;-73
2022/09/04 09:14:46;;;;;;;6.75;4.40;;;;;;;-140.66;100.00;55571.53;5035507;28;20018;-73
2022/09/04 09:17:38;;;;;;;5.60;4.43;;;;;;;-140.66;100.00;55571.53;5022467;28;20048;-72
2022/09/04 09:20:55;;;;;;;4.72;3.90;;;;;;;-140.66;100.00;55571.53;5035863;28;20036;-72
2022/09/04 09:24:05;;;;;;;3.90;3.50;;;;;;;-140.66;100.00;55571.53;5037057;28;20465;-73
2022/09/04 09:27:29;;;;;;;4.10;3.70;;;;;;;-140.66;100.00;55571.53;5036552;28;20029;-72
2022/09/04 09:30:19;;;;;;;5.25;3.70;;;;;;;-140.66;100.00;55571.53;5019508;28;20044;-72
2022/09/04 09:33:23;;;;;;;5.43;3.88;;;;;;;-140.66;100.00;55571.53;5036357;28;20069;-73
2022/09/04 09:36:16;;;;;;;5.40;3.60;;;;;;;-140.66;100.00;55571.53;5035684;28;20406;-72
2022/09/04 09:39:32;;;;;;;7.70;3.85;;;;;;;-140.66;100.00;55571.53;5036447;28;20029;-72
2022/09/04 09:42:45;;;;;;;4.97;3.50;;;;;;;-140.66;100.00;55571.53;5036693;28;20116;-74
2022/09/04 09:45:35;;;;;;;4.30;3.53;;;;;;;-140.66;100.00;55571.53;5035378;28;20033;-73
2022/09/04 09:48:51;;;;;;;5.68;3.88;;;;;;;-140.66;100.00;55571.53;5035784;28;20033;-73
2022/09/04 09:51:55;;;;;;;4.22;3.65;;;;;;;-140.66;100.00;55571.53;5035328;28;20037;-72
2022/09/04 09:54:46;;;;;;;5.30;3.92;;;;;;;-140.66;100.00;55571.53;5035615;28;20417;-73
2022/09/04 09:57:54;;;;;;;6.85;4.03;;;;;;;-140.66;100.00;55571.53;5036340;28;20367;-72
2022/09/04 10:00:45;;;;;;;5.13;3.83;;;;;;;-140.66;100.00;55571.53;5035430;28;20029;-72
2022/09/04 10:03:31;;;;;;;4.47;3.97;;;;;;;-140.66;100.00;55571.53;5035970;28;20064;-72
2022/09/04 10:06:32;;;;;;;7.03;4.00;;;;;;;-140.66;100.00;55571.53;5035456;28;20029;-72
2022/09/04 10:09:24;;;;;;;5.40;3.97;;;;;;;-140.66;100.00;55571.53;5034246;28;20017;-72
2022/09/04 10:12:44;;;;;;;6.28;4.20;;;;;;;-140.66;100.00;55571.53;5035680;28;20029;-72
2022/09/04 10:16:07;;;;;;;4.47;3.70;;;;;;;-140.66;100.00;55571.53;5035146;28;20373;-72
2022/09/04 10:19:18;;;;;;;9.07;4.15;;;;;;;-140.66;100.00;55571.53;5035316;28;20025;-72
2022/09/04 10:22:22;;;;;;;3.90;3.50;;;;;;;-140.66;100.00;55571.53;5034849;28;20032;-72
2022/09/04 10:25:24;;;;;;;5.63;3.70;;;;;;;-140.66;100.00;55571.53;5035003;28;20040;-72
2022/09/04 10:28:48;;;;;;;8.57;4.13;;;;;;;-140.66;100.00;55571.53;5035635;28;20040;-71
2022/09/04 10:31:49;;;;;;;4.50;3.92;;;;;;;-140.66;100.00;55571.53;5034349;28;20040;-72
2022/09/04 10:34:55;;;;;;;7.93;4.07;;;;;;;-140.66;100.00;55571.53;5035640;28;20033;-72
2022/09/04 10:38:11;;;;;;;5.43;3.80;;;;;;;-140.66;100.00;55571.53;5033791;28;20026;-72
2022/09/04 10:41:00;;;;;;;7.30;3.70;;;;;;;-140.66;100.00;55571.53;5021123;28;20030;-72
2022/09/04 10:43:55;;;;;;;7.85;3.72;;;;;;;-140.66;100.00;55571.53;5035339;28;20021;-72
2022/09/04 10:46:55;;;;;;;7.18;3.95;;;;;;;-140.66;100.00;55571.53;5021703;28;20339;-72
2022/09/04 10:50:14;;;;;;;4.85;3.95;;;;;;;-140.66;100.00;55571.53;5034753;28;20025;-74
2022/09/04 10:53:41;;;;;;;4.60;3.65;;;;;;;-140.66;100.00;55571.53;5034624;28;20029;-72
2022/09/04 10:56:28;;;;;;;5.20;4.13;;;;;;;-140.66;100.00;55571.53;5010128;28;20108;-72
2022/09/04 10:59:32;;;;;;;8.73;4.38;;;;;;;-140.66;100.00;55571.53;5020499;28;20163;-72
2022/09/04 11:03:01;;;;;;;5.03;3.90;;;;;;;-140.66;100.00;55571.53;5021567;28;20041;-72
2022/09/04 11:05:59;;;;;;;4.63;3.60;;;;;;;-140.66;100.00;55571.53;5009365;28;20030;-72
2022/09/04 11:09:16;;;;;;;6.35;3.53;;;;;;;-140.66;100.00;55571.53;5034903;28;20033;-72
2022/09/04 11:12:36;;;;;;;5.13;3.85;;;;;;;-140.66;100.00;55571.53;5035558;28;20025;-72
2022/09/04 11:15:59;;;;;;;4.43;3.83;;;;;;;-140.66;100.00;55571.53;5034241;28;20021;-72
2022/09/04 11:19:13;;;;;;;5.72;4.00;;;;;;;-140.66;100.00;55571.53;5033469;28;20034;-72
2022/09/04 11:22:40;;;;;;;6.80;3.80;;;;;;;-140.66;100.00;55571.53;5033238;28;20150;-73
2022/09/04 11:26:04;;;;;;;12.07;4.10;;;;;;;-140.66;100.00;55571.53;5008218;28;20093;-73
2022/09/04 11:29:26;;;;;;;6.82;3.88;;;;;;;-140.66;100.00;55571.53;5031071;28;20104;-72
2022/09/04 11:32:33;;;;;;;4.25;3.33;;;;;;;-140.66;100.00;55571.53;5034488;28;20068;-71
2022/09/04 11:35:56;;;;;;;3.97;3.55;;;;;;;-140.66;100.00;55571.53;5034403;28;20419;-72
2022/09/04 11:39:11;;;;;;;4.90;3.67;;;;;;;-140.66;100.00;55571.53;5021450;28;20044;-72
2022/09/04 11:42:34;;;;;;;9.45;4.30;;;;;;;-140.66;100.00;55571.53;5001850;28;20038;-72
2022/09/04 11:45:22;;;;;;;5.45;3.90;;;;;;;-140.66;100.00;55571.53;5033932;28;20041;-73
2022/09/04 11:48:36;;;;;;;5.63;3.83;;;;;;;-140.66;100.00;55571.53;5034532;28;20473;-73
2022/09/04 11:51:44;;;;;;;6.40;3.42;;;;;;;-140.66;100.00;55571.53;5034077;28;20029;-73
2022/09/04 11:55:03;;;;;;;4.70;3.35;;;;;;;-140.66;100.00;55571.53;5020271;28;20044;-72
2022/09/04 11:58:12;;;;;;;5.63;3.85;;;;;;;-140.66;100.00;55571.53;5033916;28;20084;-72
2022/09/04 12:01:09;;;;;;;6.43;4.00;;;;;;;-140.66;100.00;55571.53;5034831;28;20033;-72
2022/09/04 12:04:33;;;;;;;5.45;4.20;;;;;;;-140.66;100.00;55571.53;5019405;28;20025;-73
2022/09/04 12:07:43;;;;;;;6.28;4.00;;;;;;;-140.66;100.00;55571.53;4935039;29;20028;-72
2022/09/04 12:10:57;;;;;;;4.35;3.65;;;;;;;-140.66;100.00;55571.53;4937076;28;20056;-73
2022/09/04 12:14:13;;;;;;;4.82;3.45;;;;;;;-140.66;100.00;55571.53;5034006;28;20458;-73
2022/09/04 12:17:50;;;;;;;4.70;3.72;;;;;;;-140.66;100.00;55571.53;4985609;28;20037;-72
2022/09/04 12:21:00;;;;;;;4.20;3.80;;;;;;;-140.66;100.00;55571.53;5019569;28;20091;-73
2022/09/04 12:24:10;;;;;;;3.78;3.38;;;;;;;-140.66;100.00;55571.53;5033345;28;20116;-72
2022/09/04 12:27:33;;;;;;;4.07;3.47;;;;;;;-140.66;100.00;55571.53;5020412;28;20125;-72
2022/09/04 12:30:22;;;;;;;5.43;4.00;;;;;;;-140.66;100.00;55571.53;5036869;28;20162;-72
2022/09/04 12:33:45;;;;;;;5.70;3.70;;;;;;;-140.66;100.00;55571.53;5024165;28;20044;-73
2022/09/04 12:36:58;;;;;;;4.38;3.75;;;;;;;-140.66;100.00;55571.53;5036997;28;20029;-72
2022/09/04 12:40:33;;;;;;;8.57;3.97;;;;;;;-140.66;100.00;55571.53;5036813;28;20524;-73
2022/09/04 12:43:31;;;;;;;5.07;3.88;;;;;;;-140.66;100.00;55571.53;4957484;29;20028;-73
2022/09/04 12:46:59;;;;;;;4.30;3.70;;;;;;;-140.66;100.00;55571.53;4958279;28;20031;-73
2022/09/04 12:49:45;;;;;;;5.43;3.80;;;;;;;-140.66;100.00;55571.53;5024365;28;20036;-72
2022/09/04 12:52:43;;;;;;;5.22;3.47;;;;;;;-140.66;100.00;55571.53;5037739;28;20116;-73
2022/09/04 12:56:02;;;;;;;5.80;3.65;;;;;;;-140.66;100.00;55571.53;5036852;28;20059;-72
2022/09/04 12:59:24;;;;;;;3.70;3.28;;;;;;;-140.66;100.00;55571.53;5018187;28;20099;-73
2022/09/04 13:02:16;;;;;;;5.15;3.42;;;;;;;-140.66;100.00;55571.53;5035771;28;20040;-75
2022/09/04 13:05:35;;;;;;;4.38;3.60;;;;;;;-140.66;100.00;55571.53;5035677;28;20029;-72
2022/09/04 13:08:27;;;;;;;3.92;3.35;;;;;;;-140.66;100.00;55571.53;5036497;28;20410;-73
2022/09/04 13:11:40;;;;;;;4.32;3.35;;;;;;;-140.66;100.00;55571.53;5036230;28;20036;-71
2022/09/04 13:14:33;;;;;;;5.80;3.58;;;;;;;-140.66;100.00;55571.53;5036214;28;20116;-72
2022/09/04 13:17:28;;;;;;;4.47;3.70;;;;;;;-140.66;100.00;55571.53;5036226;28;20022;-73
2022/09/04 13:20:17;;;;;;;3.85;3.45;;;;;;;-140.66;100.00;55571.53;5037227;28;20374;-72
2022/09/04 13:23:13;;;;;;;4.35;3.40;;;;;;;-140.66;100.00;55571.53;5036201;28;20026;-72
2022/09/04 13:26:36;;;;;;;5.30;4.00;;;;;;;-140.66;100.00;55571.53;5035432;28;20025;-72
2022/09/04 13:29:34;;;;;;;6.38;3.75;;;;;;;-140.66;100.00;55571.53;5035340;28;20080;-73
2022/09/04 13:32:42;;;;;;;4.07;3.70;;;;;;;-140.66;100.00;55571.53;5037376;28;20033;-72
2022/09/04 13:35:48;;;;;;;4.32;3.75;;;;;;;-140.66;100.00;55571.53;5036262;28;20033;-73
2022/09/04 13:38:44;;;;;;;4.95;4.00;;;;;;;-140.66;100.00;55571.53;5022634;28;20025;-72
2022/09/04 13:41:38;;;;;;;5.82;3.80;;;;;;;-140.66;100.00;55571.53;5035223;28;20032;-73
2022/09/04 13:44:47;;;;;;;4.80;3.72;;;;;;;-140.66;100.00;55571.53;5035566;28;20030;-73
2022/09/04 13:47:54;;;;;;;4.80;3.97;;;;;;;-140.66;100.00;55571.53;5036027;28;20041;-73
2022/09/04 13:50:54;;;;;;;4.82;4.07;;;;;;;-140.66;100.00;55571.53;5036172;28;20037;-73
2022/09/04 13:54:00;;;;;;;5.03;4.00;;;;;;;-140.66;100.00;55571.53;5036337;28;20092;-73
2022/09/04 13:57:26;;;;;;;3.95;3.45;;;;;;;-140.66;100.00;55571.53;5035463;28;20049;-72
2022/09/04 14:00:13;;;;;;;4.40;3.85;;;;;;;-140.66;100.00;55571.53;5035824;28;20029;-73